Time;durP1;ratioP1;P1;durP2;ratioP2;P2;SDS_P1;SDS_P2;PMS_P1;PMS_P2;Temp;Humidity;BMP_temperature;BMP_pressure;BME280_temperature;BME280_humidity;BME280_pressure;Samples;Min_cycle;Max_cycle;Signal;HPM_P1;HPM_P2
2022/03/04 00:01:53;;;;;;;16.07;10.17;;;1.40;99.90;;;;;;6308589;22;20506;-45
2022/03/04 00:04:19;;;;;;;14.87;9.30;;;1.30;99.90;;;;;;6308582;22;20231;-44
2022/03/04 00:06:45;;;;;;;22.93;10.63;;;1.30;99.90;;;;;;6281256;22;20178;-45
2022/03/04 00:09:10;;;;;;;17.70;10.47;;;1.20;99.90;;;;;;6308580;22;20181;-46
2022/03/04 00:11:36;;;;;;;17.97;10.43;;;1.10;99.90;;;;;;6281588;22;20669;-47
2022/03/04 00:14:01;;;;;;;13.47;9.57;;;1.10;99.90;;;;;;6308746;22;20206;-45
2022/03/04 00:16:27;;;;;;;16.20;10.10;;;1.00;99.90;;;;;;6308374;22;20242;-46
2022/03/04 00:19:11;;;;;;;14.93;9.37;;;0.90;99.90;;;;;;6308653;22;20146;-43
2022/03/04 00:21:43;;;;;;;16.07;10.30;;;0.80;99.90;;;;;;6281379;22;20146;-47
2022/03/04 00:24:10;;;;;;;16.63;10.17;;;0.80;99.90;;;;;;6308525;22;20154;-46
2022/03/04 00:26:37;;;;;;;19.87;10.93;;;0.70;99.90;;;;;;6280930;22;20515;-46
2022/03/04 00:29:04;;;;;;;20.27;11.40;;;0.70;99.90;;;;;;6280975;22;20631;-44
2022/03/04 00:31:29;;;;;;;19.67;10.23;;;0.70;99.90;;;;;;6308864;22;20153;-44
2022/03/04 00:33:55;;;;;;;15.33;10.87;;;0.70;99.90;;;;;;6308597;22;20257;-47
2022/03/04 00:36:22;;;;;;;17.47;10.47;;;0.70;99.90;;;;;;6281449;22;20152;-47
2022/03/04 00:38:50;;;;;;;16.40;11.17;;;0.70;99.90;;;;;;6281107;22;20166;-47
2022/03/04 00:41:17;;;;;;;17.43;10.83;;;0.70;99.90;;;;;;6308458;22;20156;-46
2022/03/04 00:43:44;;;;;;;16.83;10.77;;;0.80;99.90;;;;;;6281020;22;20656;-45
2022/03/04 00:46:10;;;;;;;20.00;10.93;;;0.70;99.90;;;;;;6308242;22;20156;-45
2022/03/04 00:48:36;;;;;;;17.90;11.37;;;0.70;99.90;;;;;;6280967;22;20180;-45
2022/03/04 00:51:02;;;;;;;17.73;11.10;;;0.70;99.90;;;;;;6281383;22;20182;-44
2022/03/04 00:53:28;;;;;;;23.97;11.13;;;0.70;99.90;;;;;;6280448;22;20590;-45
2022/03/04 00:55:54;;;;;;;18.43;11.30;;;0.70;99.90;;;;;;6308224;22;20156;-45
2022/03/04 00:58:19;;;;;;;19.03;11.83;;;0.60;99.90;;;;;;6308055;22;20623;-45
2022/03/04 01:00:45;;;;;;;16.87;10.27;;;0.60;99.90;;;;;;6308067;22;20533;-46
2022/03/04 01:03:10;;;;;;;16.83;10.87;;;0.50;99.90;;;;;;6280700;22;20164;-44
2022/03/04 01:05:37;;;;;;;16.90;10.23;;;0.50;99.90;;;;;;6308048;22;20160;-44
2022/03/04 01:08:03;;;;;;;18.47;9.97;;;0.40;99.90;;;;;;6280732;22;20180;-44
2022/03/04 01:10:29;;;;;;;16.80;10.00;;;0.30;99.90;;;;;;6307907;22;20180;-45
2022/03/04 01:12:55;;;;;;;19.20;11.17;;;0.30;99.90;;;;;;6280586;22;20155;-45
2022/03/04 01:15:20;;;;;;;17.70;11.07;;;0.20;99.90;;;;;;6308348;22;20153;-43
2022/03/04 01:17:46;;;;;;;18.60;10.97;;;0.10;99.90;;;;;;6280870;22;20633;-44
2022/03/04 01:20:12;;;;;;;16.20;10.57;;;0.10;99.90;;;;;;6308121;22;20154;-45
2022/03/04 01:22:37;;;;;;;16.77;10.80;;;0.00;99.90;;;;;;6308910;22;20155;-44
2022/03/04 01:25:04;;;;;;;18.60;10.90;;;0.10;99.90;;;;;;6308017;22;20164;-45
2022/03/04 01:27:32;;;;;;;19.53;11.73;;;0.10;99.90;;;;;;6308601;22;20504;-45
2022/03/04 01:29:58;;;;;;;18.27;10.87;;;0.10;99.90;;;;;;6280758;22;20214;-46
2022/03/04 01:32:24;;;;;;;17.87;10.57;;;0.10;99.90;;;;;;6309359;22;20374;-45
2022/03/04 01:34:50;;;;;;;17.40;11.33;;;0.20;99.90;;;;;;6281047;22;20163;-46
2022/03/04 01:37:16;;;;;;;21.17;12.17;;;0.20;99.90;;;;;;6280750;22;20399;-46
2022/03/04 01:39:41;;;;;;;21.17;12.57;;;0.20;99.90;;;;;;6280135;22;20159;-44
2022/03/04 01:42:07;;;;;;;22.63;12.77;;;0.20;99.90;;;;;;6308024;22;20542;-44
2022/03/04 01:44:33;;;;;;;23.77;12.30;;;0.20;99.90;;;;;;6308067;22;20207;-44
2022/03/04 01:46:59;;;;;;;20.03;12.17;;;0.20;99.90;;;;;;6307699;22;20398;-49
2022/03/04 01:49:25;;;;;;;21.97;12.63;;;0.20;99.90;;;;;;6280752;22;20186;-49
2022/03/04 01:51:52;;;;;;;20.77;12.53;;;0.20;99.90;;;;;;6308557;22;20482;-50
2022/03/04 01:54:17;;;;;;;20.63;11.60;;;0.20;99.90;;;;;;6308503;22;20375;-50
2022/03/04 01:56:43;;;;;;;22.73;11.70;;;0.10;99.90;;;;;;6308234;22;20526;-49
2022/03/04 01:59:09;;;;;;;20.97;11.87;;;0.10;99.90;;;;;;6308352;22;20167;-50
2022/03/04 02:01:35;;;;;;;21.97;11.73;;;0.10;99.90;;;;;;6308165;22;20160;-49
2022/03/04 02:04:00;;;;;;;17.97;11.37;;;0.10;99.90;;;;;;6281893;22;20491;-50
2022/03/04 02:06:26;;;;;;;19.77;12.17;;;0.00;99.90;;;;;;6309842;22;20378;-49
2022/03/04 02:08:52;;;;;;;21.60;11.43;;;0.10;99.90;;;;;;6310470;22;20226;-50
2022/03/04 02:11:18;;;;;;;18.97;11.70;;;0.10;99.90;;;;;;6282669;22;20159;-50
2022/03/04 02:13:44;;;;;;;19.90;11.80;;;0.10;99.90;;;;;;6310274;22;20401;-50
2022/03/04 02:16:25;;;;;;;19.80;11.40;;;0.10;99.90;;;;;;6309753;22;20152;-50
2022/03/04 02:18:51;;;;;;;19.07;11.57;;;0.10;99.90;;;;;;6309908;22;20373;-49
2022/03/04 02:21:20;;;;;;;21.23;11.03;;;0.10;99.90;;;;;;6309812;22;20366;-49
2022/03/04 02:23:46;;;;;;;23.40;12.37;;;0.10;99.90;;;;;;6282391;22;20875;-50
2022/03/04 02:26:13;;;;;;;18.97;11.70;;;0.10;99.90;;;;;;6282491;22;20432;-50
2022/03/04 02:28:39;;;;;;;20.17;11.33;;;0.10;99.90;;;;;;6310243;22;20389;-50
2022/03/04 02:31:04;;;;;;;20.53;12.03;;;0.20;99.90;;;;;;6310227;22;20384;-50
2022/03/04 02:33:30;;;;;;;20.27;12.20;;;0.20;99.90;;;;;;6309543;22;20148;-50
2022/03/04 02:35:56;;;;;;;20.27;11.07;;;0.30;99.90;;;;;;6310422;22;20174;-50
2022/03/04 02:38:22;;;;;;;22.93;11.20;;;0.30;99.90;;;;;;6282407;22;20187;-50
2022/03/04 02:40:47;;;;;;;19.33;11.87;;;0.40;99.90;;;;;;6310220;22;20220;-50
2022/03/04 02:43:13;;;;;;;22.73;12.63;;;0.40;99.90;;;;;;6310777;22;20155;-49
2022/03/04 02:45:38;;;;;;;22.93;11.90;;;0.40;99.90;;;;;;6285430;22;20169;-49
2022/03/04 02:48:04;;;;;;;20.23;12.10;;;0.40;99.90;;;;;;6313822;22;20225;-50
2022/03/04 02:50:30;;;;;;;23.60;11.27;;;0.40;99.90;;;;;;6314515;22;20191;-50
2022/03/04 02:52:56;;;;;;;21.17;12.23;;;0.40;99.90;;;;;;6310153;22;20155;-50
2022/03/04 02:55:22;;;;;;;18.77;12.07;;;0.50;99.90;;;;;;6281927;22;20603;-48
2022/03/04 02:57:48;;;;;;;17.60;11.83;;;0.50;99.90;;;;;;6309357;22;20178;-49
2022/03/04 03:00:16;;;;;;;22.23;11.30;;;0.50;99.90;;;;;;6309542;22;20374;-50
2022/03/04 03:02:42;;;;;;;19.37;11.10;;;0.50;99.90;;;;;;6309520;22;20207;-49
2022/03/04 03:05:09;;;;;;;19.60;10.63;;;0.50;99.90;;;;;;6309315;22;20842;-49
2022/03/04 03:07:35;;;;;;;16.23;10.33;;;0.50;99.90;;;;;;6309506;22;20476;-50
2022/03/04 03:10:01;;;;;;;21.77;11.63;;;0.50;99.90;;;;;;6256077;22;20511;-50
2022/03/04 03:12:27;;;;;;;18.37;11.00;;;0.50;99.90;;;;;;6309693;22;20743;-50
2022/03/04 03:14:53;;;;;;;19.40;10.90;;;0.50;99.90;;;;;;6309848;22;20151;-49
2022/03/04 03:17:19;;;;;;;20.33;11.53;;;0.50;99.90;;;;;;6281562;22;20484;-50
2022/03/04 03:19:44;;;;;;;24.33;12.23;;;0.60;99.90;;;;;;6309028;22;20155;-49
2022/03/04 03:22:10;;;;;;;18.00;10.80;;;0.60;99.90;;;;;;6309394;22;20247;-50
2022/03/04 03:24:36;;;;;;;22.57;11.60;;;0.50;99.90;;;;;;6309443;22;20203;-49
2022/03/04 03:27:02;;;;;;;19.63;10.63;;;0.50;99.90;;;;;;6309429;22;20760;-49
2022/03/04 03:29:27;;;;;;;19.23;11.70;;;0.40;99.90;;;;;;6309647;22;20202;-50
2022/03/04 03:31:53;;;;;;;21.47;10.97;;;0.30;99.90;;;;;;6309471;22;20150;-49
2022/03/04 03:34:18;;;;;;;21.20;11.77;;;0.20;99.90;;;;;;6309493;22;20162;-49
2022/03/04 03:36:44;;;;;;;19.67;12.00;;;0.10;99.90;;;;;;6309531;22;20284;-50
2022/03/04 03:39:09;;;;;;;21.13;12.07;;;0.00;99.90;;;;;;6308802;22;20222;-49
2022/03/04 03:41:36;;;;;;;22.30;12.60;;;0.00;99.90;;;;;;6308851;22;20544;-49
2022/03/04 03:44:02;;;;;;;19.83;11.70;;;0.00;99.90;;;;;;6308861;22;20158;-49
2022/03/04 03:46:27;;;;;;;20.60;12.27;;;-0.10;99.90;;;;;;6308875;22;20409;-49
2022/03/04 03:48:53;;;;;;;19.20;12.00;;;-0.10;99.90;;;;;;6309052;22;20748;-50
2022/03/04 03:51:19;;;;;;;23.03;13.17;;;-0.10;99.90;;;;;;6308993;22;20232;-50
2022/03/04 03:53:46;;;;;;;19.73;11.77;;;-0.10;99.90;;;;;;6281330;22;20611;-50
2022/03/04 03:56:11;;;;;;;20.70;12.13;;;-0.20;99.90;;;;;;6309193;22;20372;-50
2022/03/04 03:58:37;;;;;;;21.77;11.53;;;-0.20;99.90;;;;;;6281224;22;20450;-50
2022/03/04 04:01:04;;;;;;;21.83;12.07;;;-0.20;99.90;;;;;;6281351;22;20601;-50
2022/03/04 04:03:30;;;;;;;19.47;11.67;;;-0.20;99.90;;;;;;6308959;22;20146;-50
2022/03/04 04:05:55;;;;;;;24.40;12.80;;;-0.30;99.90;;;;;;6308655;22;20380;-50
2022/03/04 04:08:22;;;;;;;20.57;12.67;;;-0.30;99.90;;;;;;6308858;22;20304;-50
2022/03/04 04:10:47;;;;;;;20.63;11.97;;;-0.30;99.90;;;;;;6308694;22;20508;-50
2022/03/04 04:13:13;;;;;;;23.00;12.13;;;-0.30;99.90;;;;;;6281346;22;20480;-51
2022/03/04 04:15:38;;;;;;;19.50;12.87;;;-0.30;99.90;;;;;;6308598;22;20161;-51
2022/03/04 04:18:04;;;;;;;22.87;13.43;;;-0.30;99.90;;;;;;6309178;22;20182;-50
2022/03/04 04:20:30;;;;;;;22.00;13.10;;;-0.30;99.90;;;;;;6281724;22;20163;-50
2022/03/04 04:22:56;;;;;;;27.87;15.30;;;-0.30;99.90;;;;;;6309097;22;20221;-49
2022/03/04 04:25:22;;;;;;;28.30;15.53;;;-0.30;99.90;;;;;;6308839;22;20376;-50
2022/03/04 04:27:47;;;;;;;29.77;14.90;;;-0.30;99.90;;;;;;6307987;22;20189;-49
2022/03/04 04:30:13;;;;;;;22.93;12.43;;;-0.40;99.90;;;;;;6308257;22;20170;-49
2022/03/04 04:32:39;;;;;;;23.83;13.23;;;-0.40;99.90;;;;;;6281247;22;20158;-50
2022/03/04 04:35:05;;;;;;;24.63;13.40;;;-0.40;99.90;;;;;;6308725;22;20153;-50
2022/03/04 04:37:31;;;;;;;25.57;13.07;;;-0.50;99.90;;;;;;6308939;22;20166;-50
2022/03/04 04:39:57;;;;;;;22.13;11.73;;;-0.50;99.90;;;;;;6281151;22;20391;-50
2022/03/04 04:42:22;;;;;;;19.63;11.93;;;-0.50;99.90;;;;;;6281379;22;20166;-49
2022/03/04 04:44:48;;;;;;;24.00;12.20;;;-0.50;99.90;;;;;;6280794;22;20384;-49
2022/03/04 04:47:14;;;;;;;24.50;13.27;;;-0.50;99.90;;;;;;6308107;22;20209;-50
2022/03/04 04:49:40;;;;;;;21.40;12.80;;;-0.60;99.90;;;;;;6308012;22;20174;-50
2022/03/04 04:52:06;;;;;;;23.23;13.20;;;-0.60;99.90;;;;;;6308208;22;20146;-50
2022/03/04 04:54:32;;;;;;;20.07;11.90;;;-0.60;99.90;;;;;;6280669;22;20181;-50
2022/03/04 04:56:59;;;;;;;24.10;12.43;;;-0.70;99.90;;;;;;6308326;22;20882;-51
2022/03/04 04:59:31;;;;;;;22.43;13.13;;;-0.70;99.90;;;;;;5132709;27;21040;-50
2022/03/04 05:01:57;;;;;;;24.10;12.17;;;-0.70;99.90;;;;;;5111558;28;20470;-50
2022/03/04 05:04:22;;;;;;;23.57;13.53;;;-0.80;99.90;;;;;;5111254;28;20154;-50
2022/03/04 05:06:48;;;;;;;25.57;12.20;;;-0.80;99.90;;;;;;5107316;28;20266;-50
2022/03/04 05:09:14;;;;;;;21.03;11.77;;;-0.80;99.90;;;;;;5091141;28;20634;-51
2022/03/04 05:11:40;;;;;;;22.70;11.97;;;-0.80;99.90;;;;;;5091013;28;20175;-51
2022/03/04 05:14:05;;;;;;;23.97;12.87;;;-0.80;99.90;;;;;;5090726;28;20175;-50
2022/03/04 05:16:31;;;;;;;26.43;13.13;;;-0.80;99.90;;;;;;5090801;28;20413;-50
2022/03/04 05:18:56;;;;;;;24.50;13.27;;;-0.80;99.90;;;;;;5089213;28;20245;-51
2022/03/04 05:21:22;;;;;;;21.20;11.60;;;-0.80;99.90;;;;;;5090512;28;20183;-49
2022/03/04 05:23:59;;;;;;;22.37;12.80;;;-0.80;99.90;;;;;;5090499;28;20199;-50
2022/03/04 05:26:30;;;;;;;21.80;12.37;;;-0.80;99.90;;;;;;5090696;28;20230;-50
2022/03/04 05:28:57;;;;;;;25.47;13.30;;;-0.80;99.90;;;;;;5090457;28;20493;-50
2022/03/04 05:31:22;;;;;;;25.03;13.47;;;-0.80;99.90;;;;;;5090588;28;20510;-50
2022/03/04 05:33:48;;;;;;;24.57;13.67;;;-0.80;99.90;;;;;;5090286;28;20455;-50
2022/03/04 05:36:14;;;;;;;26.60;14.07;;;-0.80;99.90;;;;;;5090219;28;20194;-50
2022/03/04 05:38:40;;;;;;;25.03;13.40;;;-0.80;99.90;;;;;;5090236;28;20983;-50
2022/03/04 05:41:05;;;;;;;27.23;14.00;;;-0.80;99.90;;;;;;5091998;28;20172;-50
2022/03/04 05:43:31;;;;;;;25.73;14.30;;;-0.80;99.90;;;;;;5092035;28;20642;-50
2022/03/04 05:45:57;;;;;;;23.33;13.63;;;-0.80;99.90;;;;;;5093010;28;20220;-49
2022/03/04 05:48:22;;;;;;;27.63;14.67;;;-0.80;99.90;;;;;;5093462;28;20282;-50
2022/03/04 05:50:48;;;;;;;27.80;14.10;;;-0.80;99.90;;;;;;5091288;28;20704;-50
2022/03/04 05:53:14;;;;;;;30.27;13.87;;;-0.80;99.90;;;;;;5090305;28;20692;-50
2022/03/04 05:55:39;;;;;;;23.50;13.90;;;-0.80;99.90;;;;;;5089952;28;20187;-51
2022/03/04 05:58:05;;;;;;;24.60;13.77;;;-0.80;99.90;;;;;;5089759;28;20218;-50
2022/03/04 06:00:31;;;;;;;27.43;13.87;;;-0.90;99.90;;;;;;5089945;28;20552;-51
2022/03/04 06:02:57;;;;;;;25.97;13.63;;;-0.80;99.90;;;;;;5090327;28;20183;-50
2022/03/04 06:05:23;;;;;;;24.27;14.50;;;-0.90;99.90;;;;;;5090216;28;20175;-50
2022/03/04 06:07:48;;;;;;;21.30;12.13;;;-0.90;99.90;;;;;;5089660;28;20203;-50
2022/03/04 06:10:14;;;;;;;24.30;13.60;;;-1.00;99.90;;;;;;5080373;28;20264;-50
2022/03/04 06:12:39;;;;;;;23.87;12.43;;;-0.90;99.90;;;;;;5076146;28;20183;-50
2022/03/04 06:15:06;;;;;;;23.73;13.53;;;-0.90;99.90;;;;;;5076431;28;20530;-50
2022/03/04 06:17:31;;;;;;;29.97;14.50;;;-0.90;99.90;;;;;;5075869;28;20207;-49
2022/03/04 06:19:57;;;;;;;31.43;13.90;;;-0.90;99.90;;;;;;5076727;28;20418;-49
2022/03/04 06:22:23;;;;;;;24.83;14.23;;;-0.90;99.90;;;;;;5076243;28;20180;-47
2022/03/04 06:24:48;;;;;;;22.67;13.03;;;-0.80;99.90;;;;;;5076448;28;20649;-50
2022/03/04 06:27:14;;;;;;;23.73;13.77;;;-0.80;99.90;;;;;;5076494;28;20214;-49
2022/03/04 06:29:40;;;;;;;24.90;13.03;;;-0.80;99.90;;;;;;5076120;28;20186;-48
2022/03/04 06:32:07;;;;;;;29.27;13.30;;;-0.70;99.90;;;;;;5075686;28;20210;-50
2022/03/04 06:34:32;;;;;;;27.17;13.90;;;-0.70;99.90;;;;;;5075691;28;20168;-50
2022/03/04 06:36:58;;;;;;;25.53;14.80;;;-0.70;99.90;;;;;;5074270;28;20812;-50
2022/03/04 06:39:24;;;;;;;26.23;14.87;;;-0.60;99.90;;;;;;5075774;28;20203;-50
2022/03/04 06:41:49;;;;;;;22.27;13.33;;;-0.60;99.90;;;;;;5074345;28;20168;-50
2022/03/04 06:44:15;;;;;;;28.50;15.57;;;-0.60;99.90;;;;;;5075750;28;20176;-50
2022/03/04 06:46:41;;;;;;;27.07;14.47;;;-0.60;99.90;;;;;;5075861;28;20194;-49
2022/03/04 06:49:10;;;;;;;28.23;13.77;;;-0.60;99.90;;;;;;5076837;28;20662;-49
2022/03/04 06:51:36;;;;;;;23.23;12.63;;;-0.60;99.90;;;;;;5076386;28;20188;-49
2022/03/04 06:54:02;;;;;;;27.53;14.83;;;-0.50;99.90;;;;;;5090928;22;20481;-42
2022/03/04 06:56:28;;;;;;;25.87;14.13;;;-0.50;99.90;;;;;;5075503;28;20798;-42
2022/03/04 06:58:53;;;;;;;26.03;13.60;;;-0.40;99.90;;;;;;5075429;28;20208;-44
2022/03/04 07:01:19;;;;;;;24.53;13.60;;;-0.40;99.90;;;;;;5075214;28;20164;-42
2022/03/04 07:03:45;;;;;;;28.93;14.53;;;-0.40;99.90;;;;;;5075392;28;20172;-43
2022/03/04 07:06:11;;;;;;;25.07;14.40;;;-0.40;99.90;;;;;;5075147;28;20171;-41
2022/03/04 07:08:37;;;;;;;25.40;15.67;;;-0.40;99.90;;;;;;5074994;28;20191;-42
2022/03/04 07:11:03;;;;;;;27.63;15.13;;;-0.40;99.90;;;;;;5057048;28;20685;-44
2022/03/04 07:13:29;;;;;;;27.30;14.63;;;-0.40;99.90;;;;;;5074872;28;20904;-43
2022/03/04 07:15:55;;;;;;;25.50;14.47;;;-0.40;99.90;;;;;;5074861;28;20414;-44
2022/03/04 07:18:23;;;;;;;27.50;14.43;;;-0.40;99.90;;;;;;5074684;28;20484;-45
2022/03/04 07:20:49;;;;;;;28.53;14.63;;;-0.30;99.90;;;;;;5056156;28;20182;-45
2022/03/04 07:23:16;;;;;;;29.90;15.67;;;-0.30;99.90;;;;;;5075488;28;20414;-43
2022/03/04 07:25:42;;;;;;;31.67;15.90;;;-0.30;99.90;;;;;;5074710;28;20406;-43
2022/03/04 07:28:08;;;;;;;33.47;15.40;;;-0.20;99.90;;;;;;5056649;28;20854;-42
2022/03/04 07:30:34;;;;;;;25.93;14.93;;;-0.10;99.90;;;;;;5074768;28;20441;-43
2022/03/04 07:33:01;;;;;;;25.73;14.00;;;0.00;99.90;;;;;;5074801;28;20410;-41
2022/03/04 07:35:27;;;;;;;28.47;15.17;;;0.00;99.90;;;;;;5074709;28;20449;-41
2022/03/04 07:37:53;;;;;;;28.80;15.37;;;0.10;99.90;;;;;;5056954;28;20462;-40
2022/03/04 07:40:19;;;;;;;30.40;15.20;;;0.20;99.90;;;;;;5074543;28;20414;-41
2022/03/04 07:42:44;;;;;;;25.93;14.97;;;0.30;99.90;;;;;;5074332;28;20182;-41
2022/03/04 07:45:11;;;;;;;25.47;14.50;;;0.40;99.90;;;;;;5074293;28;20643;-44
2022/03/04 07:47:39;;;;;;;27.87;15.53;;;0.50;99.90;;;;;;5074448;28;20207;-42
2022/03/04 07:50:07;;;;;;;30.40;16.93;;;0.60;99.90;;;;;;5074416;28;20437;-43
2022/03/04 07:52:33;;;;;;;29.47;16.17;;;0.70;99.90;;;;;;5074096;28;20414;-42
2022/03/04 07:55:01;;;;;;;33.93;16.40;;;0.80;99.90;;;;;;5074046;28;20483;-44
2022/03/04 07:57:26;;;;;;;30.80;16.63;;;0.90;99.90;;;;;;5075144;28;20223;-41
2022/03/04 07:59:52;;;;;;;33.77;17.33;;;1.00;99.90;;;;;;5075119;28;20452;-43
2022/03/04 08:02:18;;;;;;;32.70;16.07;;;1.10;99.90;;;;;;5074478;28;20156;-42
2022/03/04 08:04:43;;;;;;;36.73;15.43;;;1.30;99.90;;;;;;5056181;28;20171;-44
2022/03/04 08:07:09;;;;;;;35.23;16.93;;;1.40;99.90;;;;;;5073812;28;20237;-44
2022/03/04 08:09:34;;;;;;;30.87;16.50;;;1.50;99.90;;;;;;5073795;28;20183;-41
2022/03/04 08:12:00;;;;;;;30.20;15.90;;;1.60;99.90;;;;;;5056031;28;20176;-40
2022/03/04 08:14:25;;;;;;;31.60;15.50;;;1.80;99.90;;;;;;5073781;28;20245;-42
2022/03/04 08:16:51;;;;;;;32.10;15.97;;;1.90;99.90;;;;;;5073670;28;20187;-44
2022/03/04 08:19:16;;;;;;;27.87;15.70;;;2.00;99.90;;;;;;5073613;28;20236;-45
2022/03/04 08:21:45;;;;;;;31.80;17.10;;;2.10;99.90;;;;;;5055824;28;20183;-43
2022/03/04 08:24:11;;;;;;;26.80;16.70;;;2.20;99.90;;;;;;5073882;28;20258;-42
2022/03/04 08:26:38;;;;;;;30.90;16.67;;;2.30;99.90;;;;;;5073527;28;20443;-40
2022/03/04 08:29:06;;;;;;;35.23;16.30;;;2.50;99.90;;;;;;5073946;28;20250;-42
2022/03/04 08:31:32;;;;;;;28.17;16.57;;;2.60;99.90;;;;;;5055555;28;20436;-44
2022/03/04 08:33:58;;;;;;;28.30;15.57;;;2.60;99.90;;;;;;5073097;28;20508;-42
2022/03/04 08:36:24;;;;;;;29.40;16.80;;;2.80;99.90;;;;;;5073468;28;20187;-42
2022/03/04 08:38:50;;;;;;;28.63;15.63;;;2.90;99.90;;;;;;5073375;28;20210;-41
2022/03/04 08:51:32;;;;;;;30.57;15.60;;;3.40;99.90;;;;;;5074117;28;20926;-41
2022/03/04 08:53:59;;;;;;;31.23;16.80;;;3.60;99.90;;;;;;5073456;28;20274;-44
2022/03/04 08:56:24;;;;;;;29.77;17.47;;;3.70;99.90;;;;;;5073820;28;20392;-42
2022/03/04 08:58:50;;;;;;;32.20;16.27;;;3.70;99.90;;;;;;5073468;28;20231;-45
2022/03/04 09:01:16;;;;;;;28.13;16.87;;;3.80;99.90;;;;;;5073506;28;20177;-41
2022/03/04 09:03:42;;;;;;;31.87;17.53;;;3.90;99.90;;;;;;5073263;28;20242;-42
2022/03/04 09:06:07;;;;;;;35.37;17.80;;;4.00;99.90;;;;;;5073172;28;20180;-43
2022/03/04 09:08:33;;;;;;;27.50;14.57;;;4.10;99.90;;;;;;5073135;28;20195;-42
2022/03/04 09:10:59;;;;;;;29.27;16.13;;;4.10;99.90;;;;;;5073223;28;20205;-43
2022/03/04 09:13:25;;;;;;;26.67;16.70;;;4.30;99.90;;;;;;5073149;28;20704;-44
2022/03/04 09:15:51;;;;;;;32.80;17.93;;;4.40;99.90;;;;;;5073112;28;20172;-43
2022/03/04 09:18:16;;;;;;;28.00;14.37;;;4.40;99.90;;;;;;5054949;28;20246;-44
2022/03/04 09:20:42;;;;;;;29.40;15.97;;;4.50;99.90;;;;;;5055268;28;20189;-40
2022/03/04 09:23:08;;;;;;;30.23;15.20;;;4.60;99.90;;;;;;5055085;28;20182;-42
2022/03/04 09:25:34;;;;;;;28.23;16.90;;;4.80;99.90;;;;;;5072969;28;20647;-42
2022/03/04 09:28:00;;;;;;;31.40;17.53;;;4.90;99.90;;;;;;5073181;28;20191;-42
2022/03/04 09:30:26;;;;;;;31.80;16.27;;;4.90;99.90;;;;;;5073190;28;20262;-41
2022/03/04 09:32:51;;;;;;;29.43;16.23;;;5.10;99.90;;;;;;5072922;28;20215;-42
2022/03/04 09:35:17;;;;;;;32.93;17.87;;;5.10;99.90;;;;;;5073166;28;20178;-42
2022/03/04 09:37:45;;;;;;;26.40;15.20;;;5.20;99.90;;;;;;5054769;28;20203;-41
2022/03/04 09:40:11;;;;;;;31.57;17.60;;;5.40;99.90;;;;;;5054855;28;20672;-40
2022/03/04 09:42:37;;;;;;;28.10;15.43;;;5.40;99.90;;;;;;5054894;28;20558;-42
2022/03/04 09:45:04;;;;;;;26.60;15.87;;;5.40;99.90;;;;;;5074720;28;20270;-42
2022/03/04 09:47:31;;;;;;;27.53;17.40;;;5.50;99.90;;;;;;5076471;28;20203;-41
2022/03/04 09:49:58;;;;;;;27.77;18.17;;;5.60;99.90;;;;;;5076538;28;20174;-44
2022/03/04 09:52:23;;;;;;;28.50;17.90;;;5.70;99.90;;;;;;5076443;28;20179;-44
2022/03/04 09:54:51;;;;;;;26.13;17.23;;;5.80;99.90;;;;;;5076303;28;20196;-44
2022/03/04 09:57:17;;;;;;;31.97;18.23;;;5.90;99.90;;;;;;5076504;28;20198;-40
2022/03/04 09:59:44;;;;;;;33.87;17.77;;;6.00;99.90;;;;;;5076601;28;20176;-42
2022/03/04 10:02:13;;;;;;;27.77;16.73;;;6.20;99.90;;;;;;5076580;28;20185;-43
2022/03/04 10:04:39;;;;;;;27.10;18.00;;;6.20;99.90;;;;;;5076493;28;20205;-41
2022/03/04 10:07:17;;;;;;;29.67;18.43;;;6.30;99.90;;;;;;5076436;28;20613;-41
2022/03/04 10:09:44;;;;;;;26.67;17.63;;;6.50;99.90;;;;;;5076308;28;20176;-44
2022/03/04 10:12:12;;;;;;;30.07;18.53;;;6.50;99.90;;;;;;5058208;28;20176;-42
2022/03/04 10:14:56;;;;;;;25.30;16.40;;;6.70;99.90;;;;;;5076221;28;20251;-39
2022/03/04 10:17:21;;;;;;;28.57;18.57;;;6.70;99.90;;;;;;5076148;28;20197;-44
2022/03/04 10:19:56;;;;;;;30.53;18.50;;;6.80;99.90;;;;;;5076328;28;20670;-41
2022/03/04 10:22:22;;;;;;;28.17;17.00;;;6.90;99.90;;;;;;5058146;28;20181;-42
2022/03/04 10:24:48;;;;;;;27.00;17.97;;;7.00;99.90;;;;;;5075907;28;20262;-42
2022/03/04 10:27:16;;;;;;;31.70;18.67;;;7.20;99.90;;;;;;5075801;28;20198;-41
2022/03/04 10:29:43;;;;;;;28.37;15.40;;;7.30;99.90;;;;;;5057911;28;20249;-43
2022/03/04 10:32:15;;;;;;;25.10;16.83;;;7.40;99.90;;;;;;5075703;28;20181;-43
2022/03/04 10:34:57;;;;;;;29.17;18.03;;;7.50;99.90;;;;;;5075997;28;20172;-44
2022/03/04 10:37:54;;;;;;;28.20;17.40;;;7.60;99.90;;;;;;5075836;28;20570;-44
2022/03/04 10:40:30;;;;;;;26.90;18.40;;;7.70;99.90;;;;;;5057749;28;20192;-40
2022/03/04 10:43:05;;;;;;;24.90;17.60;;;7.90;99.90;;;;;;5075864;28;20190;-43
2022/03/04 10:45:58;;;;;;;26.87;18.53;;;7.90;99.90;;;;;;5076105;28;20153;-43
2022/03/04 10:48:24;;;;;;;26.63;18.40;;;8.00;99.90;;;;;;5053292;28;20290;-47
2022/03/04 10:50:55;;;;;;;27.60;17.80;;;8.10;99.90;;;;;;5075991;28;20298;-48
2022/03/04 10:53:25;;;;;;;28.40;18.27;;;8.10;99.90;;;;;;5057251;28;20240;-47
2022/03/04 10:55:51;;;;;;;33.87;19.37;;;8.20;99.90;;;;;;5075276;28;20162;-49
2022/03/04 10:58:27;;;;;;;26.90;18.60;;;8.30;99.90;;;;;;5075140;28;20232;-48
2022/03/04 11:00:56;;;;;;;26.40;18.10;;;8.40;99.90;;;;;;5058184;28;20177;-48
2022/03/04 11:03:31;;;;;;;29.27;19.10;;;8.50;99.90;;;;;;5075432;28;20226;-46
2022/03/04 11:05:59;;;;;;;27.90;17.97;;;8.60;99.90;;;;;;5075413;28;20164;-49
2022/03/04 11:08:25;;;;;;;27.40;17.93;;;8.60;99.90;;;;;;5075321;28;20269;-48
2022/03/04 11:10:53;;;;;;;27.53;18.97;;;8.70;99.90;;;;;;5075043;28;20179;-49
2022/03/04 11:13:19;;;;;;;24.93;18.07;;;8.80;99.90;;;;;;5076456;28;20175;-46
2022/03/04 11:15:46;;;;;;;27.73;18.83;;;8.90;99.90;;;;;;5078183;28;20183;-48
2022/03/04 11:18:14;;;;;;;29.60;19.03;;;9.00;99.90;;;;;;5076107;28;20278;-50
2022/03/04 11:20:42;;;;;;;28.87;18.70;;;9.10;99.90;;;;;;5074744;28;20317;-50
2022/03/04 11:23:09;;;;;;;25.83;18.20;;;9.20;99.90;;;;;;5056894;28;20609;-49
2022/03/04 11:25:37;;;;;;;30.03;19.43;;;9.30;99.90;;;;;;5074727;28;20172;-47
2022/03/04 11:28:14;;;;;;;28.87;19.47;;;9.40;99.90;;;;;;5074716;28;20213;-48
2022/03/04 11:30:46;;;;;;;27.97;18.30;;;9.40;99.90;;;;;;5056731;28;20163;-48
2022/03/04 11:33:20;;;;;;;26.53;18.90;;;9.50;99.90;;;;;;5074716;28;20176;-49
2022/03/04 11:36:04;;;;;;;26.63;18.57;;;9.70;99.90;;;;;;5056659;28;20598;-49
2022/03/04 11:38:48;;;;;;;28.10;19.23;;;9.80;99.90;;;;;;5056426;28;20567;-48
2022/03/04 11:41:19;;;;;;;27.10;18.50;;;9.90;99.90;;;;;;5056442;28;20179;-49
2022/03/04 11:43:45;;;;;;;28.70;20.00;;;10.00;99.90;;;;;;5074630;28;20258;-47
2022/03/04 11:46:18;;;;;;;31.37;20.27;;;10.10;99.90;;;;;;5074509;28;20258;-48
2022/03/04 11:48:45;;;;;;;29.43;21.00;;;10.20;99.90;;;;;;5074184;28;20686;-48
2022/03/04 11:51:15;;;;;;;29.30;20.43;;;10.30;99.90;;;;;;5074778;28;20172;-49
2022/03/04 11:53:41;;;;;;;29.53;21.37;;;10.40;99.90;;;;;;5074508;28;20531;-47
2022/03/04 11:56:19;;;;;;;26.47;19.67;;;10.40;99.90;;;;;;5074117;28;20210;-47
2022/03/04 11:59:05;;;;;;;30.77;20.73;;;10.50;99.90;;;;;;5073868;28;20697;-48
2022/03/04 12:01:35;;;;;;;28.60;19.47;;;10.60;99.90;;;;;;5040298;28;20623;-48
2022/03/04 12:04:14;;;;;;;30.93;20.03;;;10.70;99.90;;;;;;5040034;28;20210;-48
2022/03/04 12:06:42;;;;;;;31.00;19.73;;;10.70;99.90;;;;;;5056338;28;20168;-48
2022/03/04 12:09:30;;;;;;;29.20;19.47;;;10.80;99.90;;;;;;5073572;28;20178;-49
2022/03/04 12:12:17;;;;;;;30.60;21.27;;;10.90;99.90;;;;;;5074188;28;20167;-47
2022/03/04 12:14:47;;;;;;;31.20;21.77;;;11.00;99.90;;;;;;5055880;28;20178;-50
2022/03/04 12:17:13;;;;;;;28.10;20.77;;;11.10;99.90;;;;;;5055818;28;20207;-50
2022/03/04 12:19:49;;;;;;;29.70;20.97;;;11.10;99.90;;;;;;5055995;28;20206;-47
2022/03/04 12:22:17;;;;;;;30.53;21.37;;;11.20;99.90;;;;;;5056767;28;20156;-43
2022/03/04 12:24:54;;;;;;;36.83;23.50;;;11.20;99.90;;;;;;5073756;28;20178;-44
2022/03/04 12:27:40;;;;;;;34.37;24.63;;;11.30;99.90;;;;;;5055641;28;20228;-45
2022/03/04 12:30:24;;;;;;;33.47;23.90;;;11.40;99.90;;;;;;5073989;28;20175;-45
2022/03/04 12:32:52;;;;;;;38.53;24.67;;;11.50;99.90;;;;;;5055837;28;20170;-43
2022/03/04 12:35:21;;;;;;;36.50;24.70;;;11.50;99.90;;;;;;5073656;28;20183;-43
2022/03/04 12:37:48;;;;;;;34.33;24.23;;;11.60;99.90;;;;;;5073668;28;20202;-47
2022/03/04 12:40:17;;;;;;;31.00;22.77;;;11.70;99.90;;;;;;5073526;28;20702;-43
2022/03/04 12:42:52;;;;;;;35.80;24.47;;;11.70;99.90;;;;;;5055557;28;20180;-44
2022/03/04 12:45:18;;;;;;;35.37;24.17;;;11.70;99.90;;;;;;5073749;28;20162;-43